Current Weather

Aeroparque Jorge Newbery

Aeroparque Jorge Newbery, Argentina (SABE)

Report from: Sunday, November 27, 2022 6:00 AM -03
Current time: Sunday, November 27, 2022 6:13 AM -03

Nearby weather
Weather history
Weather forecast

Temperature22.0°C (71.6°F)
Dew point20.0°C (68.0°F)
Winds 8 kts (4.1 m/s, 9.2 mph) Vrb
Winds variableWinds variable from Northeast (40°) to North-Northwest (330°)
Visibility6.2 mi. (10 km)
Clouds Ceiling: Broken clouds 1,300 ft. (396 m)
Altimeter30.09 in.Hg (1019 mB)
Relative humidity88 %
Density altitude939 ft. (286 m)
Remarks No significant changes expected in the next two hours
Flight conditions Marginal Visual Meteorological Conditions
Raw dataSABE 270900Z 36008KT 330V040 9999 BKN013 22/20 Q1019 NOSIG RMK PP000
An error has occurred. This application may no longer respond until reloaded. Reload 🗙